sensor_id;sensor_type;location;lat;lon;timestamp;temperature;humidity
44223;DHT22;29895;48.804;9.386;2022-10-16T00:00:16;15.30;99.90
44223;DHT22;29895;48.804;9.386;2022-10-16T00:14:53;15.50;99.90
44223;DHT22;29895;48.804;9.386;2022-10-16T00:17:22;15.50;99.90
44223;DHT22;29895;48.804;9.386;2022-10-16T00:19:48;15.50;99.90
44223;DHT22;29895;48.804;9.386;2022-10-16T00:25:12;15.50;99.90
44223;DHT22;29895;48.804;9.386;2022-10-16T00:40:35;15.40;99.90
44223;DHT22;29895;48.804;9.386;2022-10-16T00:43:09;15.40;99.90
44223;DHT22;29895;48.804;9.386;2022-10-16T00:45:38;15.40;99.90
44223;DHT22;29895;48.804;9.386;2022-10-16T00:48:07;15.40;99.90
44223;DHT22;29895;48.804;9.386;2022-10-16T00:50:36;15.30;99.90
44223;DHT22;29895;48.804;9.386;2022-10-16T00:55:44;15.20;99.90
44223;DHT22;29895;48.804;9.386;2022-10-16T00:58:15;15.20;99.90
44223;DHT22;29895;48.804;9.386;2022-10-16T01:00:48;15.10;99.90
44223;DHT22;29895;48.804;9.386;2022-10-16T01:07:04;15.20;99.90
44223;DHT22;29895;48.804;9.386;2022-10-16T01:21:06;15.20;99.90
44223;DHT22;29895;48.804;9.386;2022-10-16T01:23:51;15.10;99.90
44223;DHT22;29895;48.804;9.386;2022-10-16T01:26:49;15.20;99.90
44223;DHT22;29895;48.804;9.386;2022-10-16T01:29:30;15.10;99.90
44223;DHT22;29895;48.804;9.386;2022-10-16T01:47:48;15.10;99.90
44223;DHT22;29895;48.804;9.386;2022-10-16T01:50:37;15.10;99.90
44223;DHT22;29895;48.804;9.386;2022-10-16T01:58:19;15.00;99.90
44223;DHT22;29895;48.804;9.386;2022-10-16T02:00:49;15.00;99.90
44223;DHT22;29895;48.804;9.386;2022-10-16T02:03:18;15.00;99.90
44223;DHT22;29895;48.804;9.386;2022-10-16T02:14:47;15.10;99.90
44223;DHT22;29895;48.804;9.386;2022-10-16T02:17:21;15.10;99.90
44223;DHT22;29895;48.804;9.386;2022-10-16T02:19:49;15.20;99.90
44223;DHT22;29895;48.804;9.386;2022-10-16T02:38:49;15.20;99.90
44223;DHT22;29895;48.804;9.386;2022-10-16T02:41:20;15.10;99.90
44223;DHT22;29895;48.804;9.386;2022-10-16T02:43:46;15.10;99.90
44223;DHT22;29895;48.804;9.386;2022-10-16T02:46:30;15.20;99.90
44223;DHT22;29895;48.804;9.386;2022-10-16T02:49:09;15.10;99.90
44223;DHT22;29895;48.804;9.386;2022-10-16T02:51:39;15.10;99.90
44223;DHT22;29895;48.804;9.386;2022-10-16T02:54:06;15.10;99.90
44223;DHT22;29895;48.804;9.386;2022-10-16T02:56:47;15.20;99.90
44223;DHT22;29895;48.804;9.386;2022-10-16T03:02:40;15.20;99.90
44223;DHT22;29895;48.804;9.386;2022-10-16T03:08:13;15.00;99.90
44223;DHT22;29895;48.804;9.386;2022-10-16T03:10:45;14.90;99.90
44223;DHT22;29895;48.804;9.386;2022-10-16T03:13:11;14.90;99.90
44223;DHT22;29895;48.804;9.386;2022-10-16T03:15:57;14.90;99.90
44223;DHT22;29895;48.804;9.386;2022-10-16T03:18:24;14.90;99.90
44223;DHT22;29895;48.804;9.386;2022-10-16T03:20:50;14.90;99.90
44223;DHT22;29895;48.804;9.386;2022-10-16T03:23:36;14.90;99.90
44223;DHT22;29895;48.804;9.386;2022-10-16T03:26:37;14.90;99.90
44223;DHT22;29895;48.804;9.386;2022-10-16T03:29:06;14.90;99.90
44223;DHT22;29895;48.804;9.386;2022-10-16T03:32:00;14.90;99.90
44223;DHT22;29895;48.804;9.386;2022-10-16T03:34:28;14.80;99.90
44223;DHT22;29895;48.804;9.386;2022-10-16T04:00:06;14.50;99.90
44223;DHT22;29895;48.804;9.386;2022-10-16T04:10:52;14.30;99.90
44223;DHT22;29895;48.804;9.386;2022-10-16T04:13:21;14.20;99.90
44223;DHT22;29895;48.804;9.386;2022-10-16T04:15:55;14.20;99.90
44223;DHT22;29895;48.804;9.386;2022-10-16T04:18:22;14.10;99.90
44223;DHT22;29895;48.804;9.386;2022-10-16T04:21:04;14.10;99.90
44223;DHT22;29895;48.804;9.386;2022-10-16T04:26:05;14.20;99.90
44223;DHT22;29895;48.804;9.386;2022-10-16T04:28:32;14.10;99.90
44223;DHT22;29895;48.804;9.386;2022-10-16T04:31:18;14.10;99.90
44223;DHT22;29895;48.804;9.386;2022-10-16T04:54:40;14.10;99.90
44223;DHT22;29895;48.804;9.386;2022-10-16T05:00:20;14.20;99.90
44223;DHT22;29895;48.804;9.386;2022-10-16T05:42:26;14.00;99.90
44223;DHT22;29895;48.804;9.386;2022-10-16T05:45:14;13.90;99.90
44223;DHT22;29895;48.804;9.386;2022-10-16T05:47:40;13.90;99.90
44223;DHT22;29895;48.804;9.386;2022-10-16T05:50:07;13.90;99.90
44223;DHT22;29895;48.804;9.386;2022-10-16T05:55:11;13.90;99.90
44223;DHT22;29895;48.804;9.386;2022-10-16T05:57:37;13.90;99.90
44223;DHT22;29895;48.804;9.386;2022-10-16T06:00:03;13.90;99.90
44223;DHT22;29895;48.804;9.386;2022-10-16T06:05:09;14.00;99.90
44223;DHT22;29895;48.804;9.386;2022-10-16T06:07:41;14.00;99.90
44223;DHT22;29895;48.804;9.386;2022-10-16T06:10:06;14.00;99.90
44223;DHT22;29895;48.804;9.386;2022-10-16T06:12:32;13.90;99.90
44223;DHT22;29895;48.804;9.386;2022-10-16T06:15:06;14.00;99.90
44223;DHT22;29895;48.804;9.386;2022-10-16T06:17:34;14.00;99.90
44223;DHT22;29895;48.804;9.386;2022-10-16T06:20:05;14.10;99.90
44223;DHT22;29895;48.804;9.386;2022-10-16T06:22:45;14.10;99.90
44223;DHT22;29895;48.804;9.386;2022-10-16T06:25:10;14.20;99.90
44223;DHT22;29895;48.804;9.386;2022-10-16T06:27:38;14.30;99.90
44223;DHT22;29895;48.804;9.386;2022-10-16T06:30:04;14.40;99.90
44223;DHT22;29895;48.804;9.386;2022-10-16T07:01:06;15.40;99.90
44223;DHT22;29895;48.804;9.386;2022-10-16T07:06:11;15.60;99.90
44223;DHT22;29895;48.804;9.386;2022-10-16T07:09:11;15.60;99.90
44223;DHT22;29895;48.804;9.386;2022-10-16T07:12:15;15.50;99.90
44223;DHT22;29895;48.804;9.386;2022-10-16T07:25:54;15.60;99.90
44223;DHT22;29895;48.804;9.386;2022-10-16T07:31:29;15.90;99.90
44223;DHT22;29895;48.804;9.386;2022-10-16T07:34:01;15.90;99.90
44223;DHT22;29895;48.804;9.386;2022-10-16T07:36:27;15.90;99.90
44223;DHT22;29895;48.804;9.386;2022-10-16T07:39:05;16.00;99.90
44223;DHT22;29895;48.804;9.386;2022-10-16T07:41:31;16.00;99.90
44223;DHT22;29895;48.804;9.386;2022-10-16T07:49:34;16.00;99.90
44223;DHT22;29895;48.804;9.386;2022-10-16T07:51:59;16.00;99.90
44223;DHT22;29895;48.804;9.386;2022-10-16T07:54:25;16.00;99.90
44223;DHT22;29895;48.804;9.386;2022-10-16T07:56:50;16.10;99.90
44223;DHT22;29895;48.804;9.386;2022-10-16T07:59:16;16.10;99.90
44223;DHT22;29895;48.804;9.386;2022-10-16T08:01:43;16.30;99.90
44223;DHT22;29895;48.804;9.386;2022-10-16T08:04:09;16.30;99.90
44223;DHT22;29895;48.804;9.386;2022-10-16T08:06:35;16.40;99.90
44223;DHT22;29895;48.804;9.386;2022-10-16T08:09:01;16.40;99.90
44223;DHT22;29895;48.804;9.386;2022-10-16T08:11:26;16.50;99.90
44223;DHT22;29895;48.804;9.386;2022-10-16T08:13:53;16.60;99.90
44223;DHT22;29895;48.804;9.386;2022-10-16T08:16:46;16.60;99.90
44223;DHT22;29895;48.804;9.386;2022-10-16T08:19:17;16.80;99.90
44223;DHT22;29895;48.804;9.386;2022-10-16T08:21:46;16.90;99.90
44223;DHT22;29895;48.804;9.386;2022-10-16T08:24:15;17.10;99.90
44223;DHT22;29895;48.804;9.386;2022-10-16T08:40:51;17.10;99.90
44223;DHT22;29895;48.804;9.386;2022-10-16T08:43:26;17.60;99.90
44223;DHT22;29895;48.804;9.386;2022-10-16T09:19:01;18.90;99.90
44223;DHT22;29895;48.804;9.386;2022-10-16T09:21:29;19.10;99.90
44223;DHT22;29895;48.804;9.386;2022-10-16T09:30:22;19.50;99.90
44223;DHT22;29895;48.804;9.386;2022-10-16T09:36:19;19.50;99.90
44223;DHT22;29895;48.804;9.386;2022-10-16T10:00:37;20.30;99.90
44223;DHT22;29895;48.804;9.386;2022-10-16T10:18:30;20.80;99.90
44223;DHT22;29895;48.804;9.386;2022-10-16T10:21:04;20.90;99.90
44223;DHT22;29895;48.804;9.386;2022-10-16T10:23:33;21.20;99.90
44223;DHT22;29895;48.804;9.386;2022-10-16T10:36:37;21.80;99.90
44223;DHT22;29895;48.804;9.386;2022-10-16T10:46:41;21.70;99.90
44223;DHT22;29895;48.804;9.386;2022-10-16T10:59:48;22.10;99.90
44223;DHT22;29895;48.804;9.386;2022-10-16T11:04:55;22.20;99.90
44223;DHT22;29895;48.804;9.386;2022-10-16T11:07:27;22.00;99.90
44223;DHT22;29895;48.804;9.386;2022-10-16T11:09:55;22.00;99.90
44223;DHT22;29895;48.804;9.386;2022-10-16T11:12:24;22.10;99.90
44223;DHT22;29895;48.804;9.386;2022-10-16T11:17:21;22.10;99.90
44223;DHT22;29895;48.804;9.386;2022-10-16T11:19:58;22.10;99.90
44223;DHT22;29895;48.804;9.386;2022-10-16T11:22:30;22.10;99.90
44223;DHT22;29895;48.804;9.386;2022-10-16T11:25:02;22.20;99.90
44223;DHT22;29895;48.804;9.386;2022-10-16T11:27:40;22.20;99.90
44223;DHT22;29895;48.804;9.386;2022-10-16T11:30:28;22.30;99.90
44223;DHT22;29895;48.804;9.386;2022-10-16T11:32:54;22.30;99.90
44223;DHT22;29895;48.804;9.386;2022-10-16T11:35:37;22.40;99.90
44223;DHT22;29895;48.804;9.386;2022-10-16T11:38:03;22.30;99.90
44223;DHT22;29895;48.804;9.386;2022-10-16T11:40:32;22.20;99.90
44223;DHT22;29895;48.804;9.386;2022-10-16T11:45:49;22.40;99.90
44223;DHT22;29895;48.804;9.386;2022-10-16T11:48:19;22.40;99.90
44223;DHT22;29895;48.804;9.386;2022-10-16T11:55:48;22.90;99.90
44223;DHT22;29895;48.804;9.386;2022-10-16T12:03:17;23.20;99.90
44223;DHT22;29895;48.804;9.386;2022-10-16T12:08:27;23.40;99.90
44223;DHT22;29895;48.804;9.386;2022-10-16T12:10:53;23.70;99.90
44223;DHT22;29895;48.804;9.386;2022-10-16T12:13:30;23.70;99.90
44223;DHT22;29895;48.804;9.386;2022-10-16T12:16:06;23.70;99.90
44223;DHT22;29895;48.804;9.386;2022-10-16T12:18:32;23.50;99.90
44223;DHT22;29895;48.804;9.386;2022-10-16T12:20:58;23.40;99.90
44223;DHT22;29895;48.804;9.386;2022-10-16T12:23:29;23.40;99.90
44223;DHT22;29895;48.804;9.386;2022-10-16T12:25:56;23.40;99.90
44223;DHT22;29895;48.804;9.386;2022-10-16T12:28:22;23.50;99.90
44223;DHT22;29895;48.804;9.386;2022-10-16T12:30:52;23.60;99.90
44223;DHT22;29895;48.804;9.386;2022-10-16T12:33:29;23.70;99.90
44223;DHT22;29895;48.804;9.386;2022-10-16T12:35:55;23.80;99.90
44223;DHT22;29895;48.804;9.386;2022-10-16T12:41:06;23.70;99.90
44223;DHT22;29895;48.804;9.386;2022-10-16T12:43:39;23.70;99.90
44223;DHT22;29895;48.804;9.386;2022-10-16T12:48:33;24.00;99.90
44223;DHT22;29895;48.804;9.386;2022-10-16T12:51:09;24.10;99.90
44223;DHT22;29895;48.804;9.386;2022-10-16T12:53:35;24.20;99.90
44223;DHT22;29895;48.804;9.386;2022-10-16T12:56:13;24.30;99.90
44223;DHT22;29895;48.804;9.386;2022-10-16T13:01:11;24.20;99.90
44223;DHT22;29895;48.804;9.386;2022-10-16T13:06:29;23.70;99.90
44223;DHT22;29895;48.804;9.386;2022-10-16T13:24:53;23.30;99.90
44223;DHT22;29895;48.804;9.386;2022-10-16T13:29:52;23.40;99.90
44223;DHT22;29895;48.804;9.386;2022-10-16T13:32:18;23.40;99.90
44223;DHT22;29895;48.804;9.386;2022-10-16T13:34:45;23.40;99.90
44223;DHT22;29895;48.804;9.386;2022-10-16T13:37:22;23.40;99.90
44223;DHT22;29895;48.804;9.386;2022-10-16T13:39:47;23.40;99.90
44223;DHT22;29895;48.804;9.386;2022-10-16T13:42:16;23.40;99.90
44223;DHT22;29895;48.804;9.386;2022-10-16T13:44:47;23.40;99.90
44223;DHT22;29895;48.804;9.386;2022-10-16T13:47:17;23.50;99.90
44223;DHT22;29895;48.804;9.386;2022-10-16T13:49:43;23.50;99.90
44223;DHT22;29895;48.804;9.386;2022-10-16T13:52:19;23.40;99.90
44223;DHT22;29895;48.804;9.386;2022-10-16T13:54:45;23.50;99.90
44223;DHT22;29895;48.804;9.386;2022-10-16T13:57:17;23.70;99.90
44223;DHT22;29895;48.804;9.386;2022-10-16T13:59:43;23.80;99.90
44223;DHT22;29895;48.804;9.386;2022-10-16T14:02:14;24.00;99.90
44223;DHT22;29895;48.804;9.386;2022-10-16T14:04:40;24.10;99.90
44223;DHT22;29895;48.804;9.386;2022-10-16T14:07:11;24.00;99.90
44223;DHT22;29895;48.804;9.386;2022-10-16T14:09:38;24.00;99.90
44223;DHT22;29895;48.804;9.386;2022-10-16T14:12:08;23.80;99.90
44223;DHT22;29895;48.804;9.386;2022-10-16T14:14:42;23.70;99.90
44223;DHT22;29895;48.804;9.386;2022-10-16T14:17:15;23.60;99.90
44223;DHT22;29895;48.804;9.386;2022-10-16T14:19:45;23.40;99.90
44223;DHT22;29895;48.804;9.386;2022-10-16T14:22:26;23.30;99.90
44223;DHT22;29895;48.804;9.386;2022-10-16T14:24:52;23.30;99.90
44223;DHT22;29895;48.804;9.386;2022-10-16T14:27:31;23.30;99.90
44223;DHT22;29895;48.804;9.386;2022-10-16T14:32:51;23.30;99.90
44223;DHT22;29895;48.804;9.386;2022-10-16T14:37:52;23.40;99.90
44223;DHT22;29895;48.804;9.386;2022-10-16T14:40:18;23.40;99.90
44223;DHT22;29895;48.804;9.386;2022-10-16T14:42:44;23.50;99.90
44223;DHT22;29895;48.804;9.386;2022-10-16T14:45:10;23.50;99.90
44223;DHT22;29895;48.804;9.386;2022-10-16T14:47:37;23.50;99.90
44223;DHT22;29895;48.804;9.386;2022-10-16T14:50:13;23.50;99.90
44223;DHT22;29895;48.804;9.386;2022-10-16T14:52:38;23.40;99.90
44223;DHT22;29895;48.804;9.386;2022-10-16T14:55:04;23.30;99.90
44223;DHT22;29895;48.804;9.386;2022-10-16T14:57:31;23.20;99.90
44223;DHT22;29895;48.804;9.386;2022-10-16T14:59:58;23.10;99.90
44223;DHT22;29895;48.804;9.386;2022-10-16T15:02:30;23.00;99.90
44223;DHT22;29895;48.804;9.386;2022-10-16T15:04:57;22.90;99.90
44223;DHT22;29895;48.804;9.386;2022-10-16T15:07:23;22.90;99.90
44223;DHT22;29895;48.804;9.386;2022-10-16T15:09:49;22.90;99.90
44223;DHT22;29895;48.804;9.386;2022-10-16T15:12:15;22.90;99.90
44223;DHT22;29895;48.804;9.386;2022-10-16T15:14:40;22.80;99.90
44223;DHT22;29895;48.804;9.386;2022-10-16T15:17:07;22.70;99.90
44223;DHT22;29895;48.804;9.386;2022-10-16T15:19:33;22.50;99.90
44223;DHT22;29895;48.804;9.386;2022-10-16T15:21:59;22.40;99.90
44223;DHT22;29895;48.804;9.386;2022-10-16T15:24:25;22.40;99.90
44223;DHT22;29895;48.804;9.386;2022-10-16T15:26:50;22.30;99.90
44223;DHT22;29895;48.804;9.386;2022-10-16T15:29:16;22.30;99.90
44223;DHT22;29895;48.804;9.386;2022-10-16T15:31:41;22.30;99.90
44223;DHT22;29895;48.804;9.386;2022-10-16T15:34:12;22.40;99.90
44223;DHT22;29895;48.804;9.386;2022-10-16T15:36:38;22.40;99.90
44223;DHT22;29895;48.804;9.386;2022-10-16T15:39:04;22.20;99.90
44223;DHT22;29895;48.804;9.386;2022-10-16T15:41:30;22.20;99.90
44223;DHT22;29895;48.804;9.386;2022-10-16T15:43:56;22.00;99.90
44223;DHT22;29895;48.804;9.386;2022-10-16T15:46:22;21.90;99.90
44223;DHT22;29895;48.804;9.386;2022-10-16T15:48:48;21.80;99.90
44223;DHT22;29895;48.804;9.386;2022-10-16T15:51:14;21.70;99.90
44223;DHT22;29895;48.804;9.386;2022-10-16T15:53:40;21.50;99.90
44223;DHT22;29895;48.804;9.386;2022-10-16T15:56:06;21.40;99.90
44223;DHT22;29895;48.804;9.386;2022-10-16T15:58:32;21.30;99.90
44223;DHT22;29895;48.804;9.386;2022-10-16T16:00:58;21.10;99.90
44223;DHT22;29895;48.804;9.386;2022-10-16T16:03:26;21.00;99.90
44223;DHT22;29895;48.804;9.386;2022-10-16T16:05:52;21.00;99.90
44223;DHT22;29895;48.804;9.386;2022-10-16T16:08:17;20.90;99.90
44223;DHT22;29895;48.804;9.386;2022-10-16T16:10:43;20.80;99.90
44223;DHT22;29895;48.804;9.386;2022-10-16T16:13:09;20.70;99.90
44223;DHT22;29895;48.804;9.386;2022-10-16T16:15:34;20.60;99.90
44223;DHT22;29895;48.804;9.386;2022-10-16T16:17:59;20.40;99.90
44223;DHT22;29895;48.804;9.386;2022-10-16T16:20:27;20.30;99.90
44223;DHT22;29895;48.804;9.386;2022-10-16T16:22:52;20.20;99.90
44223;DHT22;29895;48.804;9.386;2022-10-16T16:25:18;20.00;99.90
44223;DHT22;29895;48.804;9.386;2022-10-16T16:27:44;19.90;99.90
44223;DHT22;29895;48.804;9.386;2022-10-16T16:30:10;19.70;99.90
44223;DHT22;29895;48.804;9.386;2022-10-16T16:35:11;19.50;99.90
44223;DHT22;29895;48.804;9.386;2022-10-16T17:32:27;17.90;99.90
44223;DHT22;29895;48.804;9.386;2022-10-16T17:48:10;17.50;99.90
44223;DHT22;29895;48.804;9.386;2022-10-16T22:07:26;13.40;99.90
44223;DHT22;29895;48.804;9.386;2022-10-16T22:44:27;13.00;99.90
